Time;durP1;ratioP1;P1;durP2;ratioP2;P2;SDS_P1;SDS_P2;PMS_P1;PMS_P2;Temp;Humidity;BMP_temperature;BMP_pressure;BME280_temperature;BME280_humidity;BME280_pressure;Samples;Min_cycle;Max_cycle;Signal;HPM_P1;HPM_P2
2021/01/30 00:01:45;;;;;;;10.90;2.97;;;9.00;99.90;;;;;;5128350;28;20163;-63
2021/01/30 00:04:14;;;;;;;6.53;2.33;;;9.00;99.90;;;;;;5128324;28;20159;-64
2021/01/30 00:06:54;;;;;;;16.07;3.60;;;9.10;99.90;;;;;;5125737;28;20194;-63
2021/01/30 00:09:21;;;;;;;9.83;2.60;;;9.10;99.90;;;;;;5128531;28;20177;-63
2021/01/30 00:11:55;;;;;;;9.73;2.77;;;9.20;99.90;;;;;;5127745;28;20639;-63
2021/01/30 00:14:26;;;;;;;8.03;2.43;;;9.30;99.90;;;;;;5127869;28;20186;-63
2021/01/30 00:16:52;;;;;;;9.57;2.13;;;9.40;99.90;;;;;;5125598;28;20159;-63
2021/01/30 00:19:18;;;;;;;12.10;2.43;;;9.40;99.90;;;;;;5128309;28;20212;-63
2021/01/30 00:21:52;;;;;;;12.03;2.37;;;9.60;99.90;;;;;;5128072;28;20174;-64
2021/01/30 00:24:19;;;;;;;17.97;3.43;;;9.60;99.90;;;;;;5128063;28;20178;-63
2021/01/30 00:26:50;;;;;;;13.13;3.30;;;9.50;99.90;;;;;;5125350;28;20174;-63
2021/01/30 00:29:16;;;;;;;16.10;3.73;;;9.70;99.90;;;;;;5127947;28;20202;-63
2021/01/30 00:31:42;;;;;;;15.87;3.43;;;9.60;99.90;;;;;;5127837;28;20174;-64
2021/01/30 00:34:07;;;;;;;13.00;3.53;;;9.50;99.90;;;;;;5109818;28;20188;-63
2021/01/30 00:36:33;;;;;;;13.13;3.50;;;9.60;99.90;;;;;;5125180;28;20162;-63
2021/01/30 00:38:58;;;;;;;9.63;3.77;;;9.50;99.90;;;;;;5127871;28;20200;-63
2021/01/30 00:41:24;;;;;;;15.10;4.00;;;9.50;99.90;;;;;;5127833;28;20698;-63
2021/01/30 00:43:50;;;;;;;13.83;4.63;;;9.60;99.90;;;;;;5127322;28;20237;-63
2021/01/30 00:46:15;;;;;;;17.37;4.30;;;9.50;99.90;;;;;;5125079;28;20218;-63
2021/01/30 00:48:42;;;;;;;17.63;4.60;;;9.50;99.90;;;;;;5127610;28;20196;-63
2021/01/30 00:51:08;;;;;;;9.33;4.20;;;9.70;99.90;;;;;;5127584;28;20188;-63
2021/01/30 00:53:33;;;;;;;14.00;4.40;;;9.70;99.90;;;;;;5127647;28;20238;-63
2021/01/30 00:55:59;;;;;;;8.43;4.10;;;9.60;99.90;;;;;;5124811;28;20198;-63
2021/01/30 00:58:25;;;;;;;19.73;4.73;;;9.60;99.90;;;;;;5109552;28;20171;-64
2021/01/30 01:00:50;;;;;;;14.10;4.37;;;9.50;99.90;;;;;;5126801;28;20179;-64
2021/01/30 01:03:16;;;;;;;15.67;5.10;;;9.50;99.90;;;;;;5127530;28;20269;-64
2021/01/30 01:05:42;;;;;;;13.30;3.87;;;9.40;99.90;;;;;;5124516;28;20205;-64
2021/01/30 01:08:07;;;;;;;17.40;5.00;;;9.40;99.90;;;;;;5127536;28;20167;-64
2021/01/30 01:10:33;;;;;;;16.97;5.40;;;9.50;99.90;;;;;;5127209;28;20155;-64
2021/01/30 01:12:58;;;;;;;17.67;5.07;;;9.40;99.90;;;;;;5127366;28;20651;-63
2021/01/30 01:15:24;;;;;;;16.63;4.80;;;9.70;99.90;;;;;;5124193;28;20181;-64
2021/01/30 01:17:50;;;;;;;20.87;5.17;;;9.70;99.90;;;;;;5127075;28;20170;-63
2021/01/30 01:20:20;;;;;;;22.47;5.53;;;9.50;99.90;;;;;;5127099;28;20163;-64
2021/01/30 01:22:46;;;;;;;22.50;6.00;;;9.50;99.90;;;;;;5126960;28;20166;-64
2021/01/30 01:25:12;;;;;;;16.23;5.83;;;9.50;99.90;;;;;;5124182;28;20198;-64
2021/01/30 01:27:38;;;;;;;15.50;4.47;;;9.40;99.90;;;;;;5126878;28;20182;-64
2021/01/30 01:30:06;;;;;;;16.40;5.20;;;9.30;99.90;;;;;;5108450;28;20178;-64
2021/01/30 01:32:32;;;;;;;21.37;5.70;;;9.30;99.90;;;;;;5108431;28;20182;-64
2021/01/30 01:34:58;;;;;;;16.90;5.43;;;9.30;99.90;;;;;;5123915;28;20218;-64
2021/01/30 01:37:23;;;;;;;21.37;5.50;;;9.30;99.90;;;;;;5126598;28;20233;-64
2021/01/30 01:39:49;;;;;;;17.73;5.10;;;9.40;99.90;;;;;;5126612;28;20216;-64
2021/01/30 01:42:22;;;;;;;19.03;6.07;;;9.50;99.90;;;;;;5126430;28;20225;-64
2021/01/30 01:44:49;;;;;;;21.23;6.37;;;9.40;99.90;;;;;;5125288;28;20190;-64
2021/01/30 01:47:20;;;;;;;17.43;5.20;;;9.40;99.90;;;;;;5125248;28;20151;-64
2021/01/30 01:49:47;;;;;;;17.43;4.90;;;9.30;99.90;;;;;;5126269;28;20562;-64
2021/01/30 01:52:19;;;;;;;14.73;5.40;;;9.30;99.90;;;;;;5126251;28;20217;-64
2021/01/30 01:54:50;;;;;;;23.47;5.20;;;9.30;99.90;;;;;;5125440;28;20166;-63
2021/01/30 01:57:16;;;;;;;19.07;5.27;;;9.40;99.90;;;;;;5125320;28;20161;-64
2021/01/30 01:59:51;;;;;;;19.10;5.27;;;9.30;99.90;;;;;;5126009;28;20170;-64
2021/01/30 02:02:17;;;;;;;17.27;5.47;;;9.10;99.90;;;;;;5126375;28;20256;-64
2021/01/30 02:05:05;;;;;;;20.33;5.40;;;9.10;99.90;;;;;;5125489;28;20655;-64
2021/01/30 02:07:31;;;;;;;23.60;5.47;;;9.00;99.90;;;;;;5108000;28;20524;-64
2021/01/30 02:09:58;;;;;;;17.43;5.23;;;8.90;99.90;;;;;;5125752;28;20166;-65
2021/01/30 02:12:26;;;;;;;14.50;4.80;;;9.00;99.90;;;;;;5126177;28;20158;-65
2021/01/30 02:14:55;;;;;;;17.77;5.90;;;9.10;99.90;;;;;;5105860;28;20174;-64
2021/01/30 02:17:32;;;;;;;17.07;5.07;;;9.10;99.90;;;;;;5125653;28;20167;-64
2021/01/30 02:20:13;;;;;;;25.47;6.50;;;9.30;99.90;;;;;;5125946;28;20287;-64
2021/01/30 02:22:38;;;;;;;16.40;5.03;;;9.10;99.90;;;;;;5125659;28;20181;-65
2021/01/30 02:25:41;;;;;;;20.67;5.23;;;9.10;99.90;;;;;;5123429;28;20187;-63
2021/01/30 02:28:25;;;;;;;21.30;5.63;;;9.10;99.90;;;;;;5126095;28;20638;-64
2021/01/30 02:31:15;;;;;;;16.17;5.07;;;9.20;99.90;;;;;;5125228;28;20173;-64
2021/01/30 02:34:08;;;;;;;15.27;4.40;;;9.00;99.90;;;;;;5125807;28;20158;-64
2021/01/30 02:36:51;;;;;;;19.37;4.63;;;9.00;99.90;;;;;;5123497;28;20194;-64
2021/01/30 02:39:22;;;;;;;19.03;4.93;;;9.00;99.90;;;;;;5126067;28;20197;-64
2021/01/30 02:42:15;;;;;;;19.83;4.47;;;8.90;99.90;;;;;;5107213;28;20629;-64
2021/01/30 02:44:50;;;;;;;20.10;4.60;;;8.90;99.90;;;;;;5124857;28;20181;-64
2021/01/30 02:47:18;;;;;;;17.53;3.73;;;8.90;99.90;;;;;;5126724;28;20150;-64
2021/01/30 02:49:50;;;;;;;16.97;4.07;;;8.80;99.90;;;;;;5129746;28;20203;-64
2021/01/30 02:52:20;;;;;;;22.33;4.63;;;8.70;99.90;;;;;;5129873;28;20198;-64
2021/01/30 02:54:46;;;;;;;16.13;7.43;;;8.70;99.90;;;;;;5128984;28;20249;-65
2021/01/30 02:57:14;;;;;;;12.17;6.97;;;8.80;99.90;;;;;;5128448;28;20184;-64
2021/01/30 02:59:50;;;;;;;8.20;6.33;;;9.00;99.90;;;;;;5129532;28;20171;-65
2021/01/30 03:02:22;;;;;;;7.70;5.60;;;9.10;99.90;;;;;;5129536;28;20247;-64
2021/01/30 03:04:53;;;;;;;8.87;5.23;;;9.10;99.90;;;;;;5128632;28;20183;-65
2021/01/30 03:07:41;;;;;;;6.33;4.40;;;9.00;99.90;;;;;;5128749;28;20157;-64
2021/01/30 03:10:27;;;;;;;9.03;4.83;;;9.10;99.90;;;;;;5129763;28;20163;-64
2021/01/30 03:13:06;;;;;;;8.97;4.70;;;9.00;99.90;;;;;;5129395;28;20171;-64
2021/01/30 03:15:54;;;;;;;12.40;5.13;;;9.10;99.90;;;;;;5126574;28;20242;-65
2021/01/30 03:18:23;;;;;;;5.07;4.57;;;9.10;99.90;;;;;;5129808;28;20601;-65
2021/01/30 03:20:50;;;;;;;7.70;5.37;;;9.10;99.90;;;;;;5128937;28;20154;-64
2021/01/30 03:23:18;;;;;;;7.77;5.20;;;9.00;99.90;;;;;;5129604;28;20163;-65
2021/01/30 03:25:46;;;;;;;9.03;4.97;;;9.00;99.90;;;;;;5126495;28;20190;-65
2021/01/30 03:28:12;;;;;;;7.03;5.27;;;9.10;99.90;;;;;;5129401;28;20158;-64
2021/01/30 03:30:38;;;;;;;6.13;5.53;;;9.20;99.90;;;;;;5129009;28;20186;-65
2021/01/30 03:33:06;;;;;;;6.77;6.00;;;9.20;99.90;;;;;;5129135;28;20192;-65
2021/01/30 03:35:32;;;;;;;7.00;6.40;;;9.10;99.90;;;;;;5126544;28;20171;-65
2021/01/30 03:37:59;;;;;;;8.87;6.40;;;9.10;99.90;;;;;;5129049;28;20223;-64
2021/01/30 03:40:24;;;;;;;10.37;6.47;;;9.10;99.90;;;;;;5129186;28;20163;-65
2021/01/30 03:42:50;;;;;;;5.57;4.70;;;9.10;99.90;;;;;;5128817;28;20204;-65
2021/01/30 03:45:23;;;;;;;6.67;4.50;;;8.90;99.90;;;;;;5126081;28;20183;-64
2021/01/30 03:47:48;;;;;;;5.20;4.80;;;8.90;99.90;;;;;;5110671;28;20241;-65
2021/01/30 03:50:15;;;;;;;5.23;4.77;;;8.90;99.90;;;;;;5110658;28;20228;-64
2021/01/30 03:52:41;;;;;;;5.93;5.43;;;8.80;99.90;;;;;;5128471;28;20215;-65
2021/01/30 03:55:08;;;;;;;6.77;6.20;;;8.70;99.90;;;;;;5107938;28;20173;-65
2021/01/30 03:57:35;;;;;;;8.10;7.23;;;8.60;99.90;;;;;;5128440;28;20184;-64
2021/01/30 04:00:01;;;;;;;8.43;7.67;;;8.50;99.90;;;;;;5128493;28;20171;-65
2021/01/30 04:02:26;;;;;;;11.80;9.43;;;8.40;99.90;;;;;;5110226;28;20518;-66
2021/01/30 04:04:52;;;;;;;11.10;9.80;;;8.40;99.90;;;;;;5126994;28;20192;-65
2021/01/30 04:07:18;;;;;;;13.97;12.57;;;8.20;99.90;;;;;;5126931;28;20410;-64
2021/01/30 04:09:44;;;;;;;12.67;11.37;;;8.20;99.90;;;;;;5128458;28;20231;-65
2021/01/30 04:12:09;;;;;;;14.87;11.13;;;8.10;99.90;;;;;;5128626;28;20226;-64
2021/01/30 04:14:36;;;;;;;12.57;9.70;;;8.10;99.90;;;;;;5128315;28;20173;-64
2021/01/30 04:17:03;;;;;;;13.17;11.13;;;8.00;99.90;;;;;;5125832;28;20166;-64
2021/01/30 04:19:28;;;;;;;16.43;11.93;;;7.80;99.90;;;;;;5128558;28;20159;-64
2021/01/30 04:21:54;;;;;;;19.87;12.57;;;7.60;99.90;;;;;;5109820;28;20711;-64
2021/01/30 04:24:19;;;;;;;13.10;11.07;;;7.50;99.90;;;;;;5128410;28;20715;-64
2021/01/30 04:26:47;;;;;;;14.83;10.53;;;7.50;99.90;;;;;;5125435;28;20191;-64
2021/01/30 04:29:13;;;;;;;14.57;9.80;;;7.50;99.90;;;;;;5127863;28;20210;-64
2021/01/30 04:31:39;;;;;;;12.30;9.00;;;7.40;99.90;;;;;;5127949;28;20196;-64
2021/01/30 04:34:05;;;;;;;9.17;8.27;;;7.40;99.90;;;;;;5109711;28;20155;-64
2021/01/30 04:36:31;;;;;;;11.57;9.17;;;7.30;99.90;;;;;;5125421;28;20181;-64
2021/01/30 04:38:57;;;;;;;14.87;8.40;;;7.30;99.90;;;;;;5128052;28;20159;-64
2021/01/30 04:41:26;;;;;;;13.23;9.00;;;7.20;99.90;;;;;;5127855;28;20178;-64
2021/01/30 04:44:01;;;;;;;11.73;8.43;;;7.10;99.90;;;;;;5127928;28;20163;-64
2021/01/30 04:46:42;;;;;;;11.30;8.97;;;7.00;99.90;;;;;;5124826;28;20277;-64
2021/01/30 04:49:07;;;;;;;12.53;8.53;;;7.10;99.90;;;;;;5127977;28;20159;-64
2021/01/30 04:51:49;;;;;;;10.80;9.10;;;7.00;99.90;;;;;;5127782;28;20234;-64
2021/01/30 04:54:44;;;;;;;10.50;9.13;;;6.90;99.90;;;;;;5127566;28;20175;-64
2021/01/30 04:57:51;;;;;;;9.93;8.90;;;6.80;99.90;;;;;;5125763;28;20159;-64
2021/01/30 05:00:44;;;;;;;16.10;10.70;;;6.70;99.90;;;;;;5024577;28;20189;-64
2021/01/30 05:03:45;;;;;;;12.33;11.03;;;6.70;99.90;;;;;;5024844;28;20177;-64
2021/01/30 05:06:16;;;;;;;12.67;11.37;;;6.70;99.90;;;;;;5021685;28;20204;-64
2021/01/30 05:08:50;;;;;;;16.43;11.97;;;6.60;99.90;;;;;;5024078;28;20169;-64
2021/01/30 05:11:20;;;;;;;14.50;12.50;;;6.60;99.90;;;;;;5024175;28;20174;-64
2021/01/30 05:13:55;;;;;;;15.60;13.13;;;6.60;99.90;;;;;;5024558;28;20262;-64
2021/01/30 05:16:30;;;;;;;14.40;11.70;;;6.70;99.90;;;;;;5021215;28;20277;-64
2021/01/30 05:19:03;;;;;;;15.03;12.37;;;6.70;99.90;;;;;;5024570;28;20179;-64
2021/01/30 05:21:41;;;;;;;14.27;12.47;;;6.60;99.90;;;;;;5024299;28;20248;-64
2021/01/30 05:24:09;;;;;;;16.47;13.00;;;6.50;99.90;;;;;;5024590;28;20173;-64
2021/01/30 05:27:20;;;;;;;16.53;12.37;;;6.40;99.90;;;;;;5021625;28;20256;-64
2021/01/30 05:30:07;;;;;;;13.23;11.90;;;6.10;99.90;;;;;;4984548;28;20516;-64
2021/01/30 05:32:45;;;;;;;14.13;12.53;;;6.00;99.90;;;;;;4985179;28;20191;-64
2021/01/30 05:35:16;;;;;;;13.43;12.07;;;6.10;99.90;;;;;;4982198;28;20175;-64
2021/01/30 05:37:52;;;;;;;15.10;12.50;;;6.20;99.90;;;;;;5075440;28;20184;-64
2021/01/30 05:40:29;;;;;;;17.30;12.77;;;6.30;99.90;;;;;;5083761;28;20176;-64
2021/01/30 05:43:15;;;;;;;13.50;12.10;;;6.30;99.90;;;;;;5083602;28;20590;-64
2021/01/30 05:45:57;;;;;;;15.00;13.50;;;6.40;99.90;;;;;;5080412;28;20195;-64
2021/01/30 05:48:31;;;;;;;13.87;12.37;;;6.40;99.90;;;;;;5083670;28;20172;-64
2021/01/30 05:50:59;;;;;;;18.43;11.77;;;6.30;99.90;;;;;;5083539;28;20555;-64
2021/01/30 05:53:27;;;;;;;19.23;12.67;;;6.30;99.90;;;;;;5083325;28;20303;-64
2021/01/30 05:55:54;;;;;;;14.10;11.90;;;6.30;99.90;;;;;;5080392;28;20806;-64
2021/01/30 05:58:23;;;;;;;14.23;12.57;;;6.10;99.90;;;;;;5083554;28;20182;-64
2021/01/30 06:00:49;;;;;;;14.17;12.70;;;6.10;99.90;;;;;;5083353;28;20263;-64
2021/01/30 06:03:18;;;;;;;13.53;12.10;;;6.00;99.90;;;;;;5083436;28;20194;-64
2021/01/30 06:05:46;;;;;;;12.70;10.80;;;5.90;99.90;;;;;;5091079;28;20232;-64
2021/01/30 06:08:31;;;;;;;10.77;9.77;;;5.70;99.90;;;;;;5126301;28;20163;-64
2021/01/30 06:11:12;;;;;;;11.73;10.53;;;5.50;99.90;;;;;;5125997;28;20163;-64
2021/01/30 06:13:59;;;;;;;11.30;10.13;;;5.50;99.90;;;;;;5126276;28;20170;-64
2021/01/30 06:16:45;;;;;;;12.60;10.23;;;5.60;99.90;;;;;;5123269;28;20200;-64
2021/01/30 06:19:21;;;;;;;12.03;10.83;;;5.70;99.90;;;;;;5126266;28;20174;-64
2021/01/30 06:21:49;;;;;;;11.63;10.67;;;5.50;99.90;;;;;;5125660;28;20170;-64
2021/01/30 06:24:28;;;;;;;11.53;10.43;;;5.50;99.90;;;;;;5126241;28;20159;-64
2021/01/30 06:26:55;;;;;;;11.50;10.43;;;5.60;99.90;;;;;;5123092;28;20392;-64
2021/01/30 06:29:30;;;;;;;11.50;10.50;;;5.60;99.90;;;;;;5107626;28;20159;-64
2021/01/30 06:32:05;;;;;;;12.77;10.50;;;5.70;99.90;;;;;;5125775;28;20174;-64
2021/01/30 06:34:35;;;;;;;10.77;9.67;;;5.60;99.90;;;;;;5126009;28;20165;-64
2021/01/30 06:37:08;;;;;;;11.40;9.50;;;5.60;99.90;;;;;;5123283;28;20171;-64
2021/01/30 06:39:36;;;;;;;10.80;9.83;;;5.60;99.90;;;;;;5126006;28;20607;-64
2021/01/30 06:42:13;;;;;;;12.07;10.87;;;5.50;99.90;;;;;;5125665;28;20257;-64
2021/01/30 06:44:39;;;;;;;11.40;10.40;;;5.40;99.90;;;;;;5125572;28;20194;-64
2021/01/30 06:47:20;;;;;;;11.57;10.67;;;5.20;99.90;;;;;;5123421;28;20155;-64
2021/01/30 06:49:52;;;;;;;13.40;10.97;;;5.20;99.90;;;;;;5126038;28;20186;-63
2021/01/30 06:52:28;;;;;;;12.10;10.00;;;5.10;99.90;;;;;;5125411;28;20222;-64
2021/01/30 06:55:05;;;;;;;11.93;9.83;;;5.10;99.90;;;;;;5123981;28;20174;-64
2021/01/30 06:57:59;;;;;;;10.27;9.43;;;5.10;99.90;;;;;;5125702;28;20192;-63
2021/01/30 07:00:29;;;;;;;10.77;9.68;;;4.90;99.90;;;;;;5106918;28;20418;-63
2021/01/30 07:03:16;;;;;;;10.03;9.10;;;5.00;99.90;;;;;;5125635;28;20170;-63
2021/01/30 07:06:06;;;;;;;10.20;9.20;;;4.90;99.90;;;;;;5122759;28;20186;-63
2021/01/30 07:08:36;;;;;;;10.57;9.67;;;5.00;99.90;;;;;;5125765;28;20248;-64
2021/01/30 07:11:33;;;;;;;11.00;10.10;;;4.90;99.90;;;;;;5125314;28;20179;-64
2021/01/30 07:14:24;;;;;;;10.57;9.67;;;5.00;99.90;;;;;;5125665;28;20519;-64
2021/01/30 07:16:58;;;;;;;11.90;11.00;;;5.10;99.90;;;;;;5122212;28;20419;-64
2021/01/30 07:19:33;;;;;;;11.43;10.43;;;5.20;99.90;;;;;;5107161;28;20165;-64
2021/01/30 07:22:07;;;;;;;12.00;10.87;;;5.20;99.90;;;;;;5106887;28;20231;-64
2021/01/30 07:24:42;;;;;;;11.43;10.43;;;5.00;99.90;;;;;;5125478;28;20167;-64
2021/01/30 07:27:36;;;;;;;12.10;11.00;;;4.80;99.90;;;;;;5123298;28;20162;-65
2021/01/30 07:30:16;;;;;;;12.47;11.17;;;4.80;99.90;;;;;;5112950;28;20190;-64
2021/01/30 07:33:05;;;;;;;11.47;10.57;;;4.90;99.90;;;;;;5126283;28;20643;-64
2021/01/30 07:35:36;;;;;;;11.80;10.80;;;4.90;99.90;;;;;;5126525;28;20159;-64
2021/01/30 07:38:05;;;;;;;10.67;9.77;;;4.70;99.90;;;;;;5128892;28;20502;-65
2021/01/30 07:40:52;;;;;;;11.87;10.67;;;4.90;99.90;;;;;;5128832;28;20174;-64
2021/01/30 07:43:33;;;;;;;11.30;10.40;;;4.70;99.90;;;;;;5128944;28;20652;-64
2021/01/30 07:46:04;;;;;;;11.33;10.43;;;4.80;99.90;;;;;;5125669;28;20186;-64
2021/01/30 07:48:51;;;;;;;11.47;10.57;;;4.80;99.90;;;;;;5128884;28;20163;-64
2021/01/30 07:51:33;;;;;;;11.37;10.37;;;4.80;99.90;;;;;;5128624;28;20158;-64
2021/01/30 07:54:00;;;;;;;13.80;10.17;;;4.70;99.90;;;;;;5128336;28;20206;-64
2021/01/30 07:57:06;;;;;;;11.23;10.07;;;4.70;99.90;;;;;;5125891;28;20242;-64
2021/01/30 07:59:38;;;;;;;9.37;8.43;;;4.80;99.90;;;;;;5128140;28;20159;-64
2021/01/30 08:02:29;;;;;;;9.50;8.70;;;4.60;99.90;;;;;;5110048;28;20583;-64
2021/01/30 08:05:06;;;;;;;10.73;9.83;;;4.70;99.90;;;;;;5126630;28;20167;-64
2021/01/30 08:08:00;;;;;;;10.27;9.47;;;4.70;99.90;;;;;;5109557;28;20206;-64
2021/01/30 08:10:56;;;;;;;9.47;8.77;;;4.70;99.90;;;;;;5128352;28;20163;-64
2021/01/30 08:13:31;;;;;;;9.20;8.37;;;4.60;99.90;;;;;;5128362;28;20166;-64
2021/01/30 08:16:15;;;;;;;9.30;8.40;;;4.60;99.90;;;;;;5125367;28;20173;-61
2021/01/30 08:18:43;;;;;;;10.75;9.90;;;4.50;99.90;;;;;;5127274;28;20840;-65
2021/01/30 08:21:23;;;;;;;9.90;9.20;;;4.80;99.90;;;;;;5128782;28;20298;-64
2021/01/30 08:24:10;;;;;;;9.77;8.97;;;4.70;99.90;;;;;;5128010;28;20173;-64
2021/01/30 08:26:48;;;;;;;8.90;8.20;;;4.70;99.90;;;;;;5124340;28;20198;-65
2021/01/30 08:29:31;;;;;;;8.70;8.00;;;4.60;99.90;;;;;;5127882;28;20242;-63
2021/01/30 08:32:00;;;;;;;8.43;7.67;;;4.70;99.90;;;;;;5127659;28;20166;-64
2021/01/30 08:34:35;;;;;;;9.30;8.57;;;4.70;99.90;;;;;;5128026;28;20166;-64
2021/01/30 08:37:27;;;;;;;9.10;8.40;;;4.70;99.90;;;;;;5124891;28;20172;-64
2021/01/30 08:40:01;;;;;;;8.60;7.90;;;4.80;99.90;;;;;;5080216;28;20183;-64
2021/01/30 08:42:36;;;;;;;8.73;8.03;;;4.70;99.90;;;;;;5127582;28;20177;-64
2021/01/30 08:45:10;;;;;;;8.53;7.83;;;4.80;99.90;;;;;;5124697;28;20189;-64
2021/01/30 08:48:14;;;;;;;8.20;7.40;;;4.60;99.90;;;;;;5127519;28;20161;-64
2021/01/30 08:50:50;;;;;;;7.90;7.30;;;4.70;99.90;;;;;;5127200;28;20193;-64
2021/01/30 08:53:34;;;;;;;7.83;7.23;;;4.90;99.90;;;;;;5126991;28;20630;-64
2021/01/30 08:56:04;;;;;;;7.80;7.20;;;4.90;99.90;;;;;;5124466;28;20166;-64
2021/01/30 08:58:36;;;;;;;7.73;7.13;;;4.90;99.90;;;;;;5127481;28;20642;-64
2021/01/30 09:01:11;;;;;;;7.13;6.53;;;4.90;99.90;;;;;;5126455;28;20186;-64
2021/01/30 09:03:59;;;;;;;7.83;7.13;;;5.00;99.90;;;;;;5127315;28;20248;-64
2021/01/30 09:06:39;;;;;;;7.23;6.63;;;5.10;99.90;;;;;;5124538;28;20196;-64
2021/01/30 09:09:11;;;;;;;8.20;7.50;;;4.90;99.90;;;;;;5127128;28;20215;-64
2021/01/30 09:11:43;;;;;;;9.47;8.57;;;5.00;99.90;;;;;;5126772;28;20166;-64
2021/01/30 09:14:34;;;;;;;9.53;8.73;;;5.10;99.90;;;;;;5127276;28;20185;-63
2021/01/30 09:17:11;;;;;;;10.13;9.23;;;5.00;99.90;;;;;;5124256;28;20549;-64
2021/01/30 09:20:01;;;;;;;10.90;9.90;;;5.00;99.90;;;;;;5108632;28;20162;-64
2021/01/30 09:22:38;;;;;;;10.13;9.23;;;4.90;99.90;;;;;;5126616;28;20186;-64
2021/01/30 09:25:25;;;;;;;11.23;10.13;;;4.70;99.90;;;;;;5124026;28;20293;-64
2021/01/30 09:28:00;;;;;;;10.70;9.70;;;4.90;99.90;;;;;;5126560;28;20170;-64
2021/01/30 09:30:35;;;;;;;10.83;9.83;;;4.90;99.90;;;;;;5126316;28;20173;-64
2021/01/30 09:33:07;;;;;;;11.03;10.03;;;5.00;99.90;;;;;;5126465;28;20175;-64
2021/01/30 09:35:35;;;;;;;12.23;10.90;;;4.90;99.90;;;;;;5105556;28;20229;-64
2021/01/30 09:38:38;;;;;;;13.43;12.13;;;4.90;99.90;;;;;;5126342;28;20190;-64
2021/01/30 09:41:05;;;;;;;13.17;11.87;;;4.70;99.90;;;;;;5023085;28;20674;-64
2021/01/30 09:43:31;;;;;;;13.17;11.97;;;4.90;99.90;;;;;;5023501;28;20410;-64
2021/01/30 09:45:56;;;;;;;13.97;12.50;;;4.70;99.90;;;;;;5020309;28;20256;-64
2021/01/30 09:48:23;;;;;;;11.47;10.37;;;4.60;99.90;;;;;;5007289;28;20177;-64
2021/01/30 09:50:52;;;;;;;12.57;11.37;;;4.60;99.90;;;;;;5023295;28;20284;-64
2021/01/30 09:53:30;;;;;;;12.30;11.10;;;4.90;99.90;;;;;;5023410;28;20624;-64
2021/01/30 09:56:11;;;;;;;12.40;11.10;;;4.90;99.90;;;;;;5020172;28;20174;-65
2021/01/30 09:58:38;;;;;;;12.87;11.57;;;4.80;99.90;;;;;;5023828;28;20161;-64
2021/01/30 10:01:08;;;;;;;13.53;12.13;;;4.90;99.90;;;;;;5022697;28;20317;-65
2021/01/30 10:03:38;;;;;;;15.30;13.20;;;4.60;99.90;;;;;;5023559;28;20225;-64
2021/01/30 10:06:24;;;;;;;14.27;12.57;;;4.50;99.90;;;;;;5020592;28;20194;-64
2021/01/30 10:08:50;;;;;;;14.23;12.60;;;4.50;99.90;;;;;;5023491;28;20683;-65
2021/01/30 10:11:21;;;;;;;14.73;13.23;;;4.50;99.90;;;;;;5023364;28;20234;-65
2021/01/30 10:13:58;;;;;;;16.57;14.97;;;4.60;99.90;;;;;;5022365;28;20943;-65
2021/01/30 10:16:25;;;;;;;13.23;11.83;;;4.60;99.90;;;;;;5123028;28;20460;-64
2021/01/30 10:19:22;;;;;;;14.50;12.30;;;4.60;99.90;;;;;;5125906;28;20163;-65
2021/01/30 10:21:49;;;;;;;17.50;12.30;;;4.60;99.90;;;;;;5107360;28;20174;-64
2021/01/30 10:24:21;;;;;;;15.67;12.33;;;4.60;99.90;;;;;;5126213;28;20222;-65
2021/01/30 10:26:49;;;;;;;15.63;11.30;;;4.70;99.90;;;;;;5123101;28;20253;-65
2021/01/30 10:29:18;;;;;;;16.00;12.47;;;4.70;99.90;;;;;;5125976;28;20249;-65
2021/01/30 10:31:52;;;;;;;17.53;12.87;;;4.80;99.90;;;;;;5125076;28;20234;-64
2021/01/30 10:34:18;;;;;;;17.83;13.20;;;4.50;99.90;;;;;;5126066;28;20170;-65
2021/01/30 10:37:09;;;;;;;19.90;13.67;;;4.50;99.90;;;;;;5104868;28;20176;-65
2021/01/30 10:39:38;;;;;;;19.83;13.97;;;4.50;99.90;;;;;;5108030;28;20178;-64
2021/01/30 10:42:09;;;;;;;19.97;14.77;;;4.60;99.90;;;;;;5125790;28;20167;-64
2021/01/30 10:44:36;;;;;;;20.60;13.73;;;4.50;99.90;;;;;;5125507;28;20169;-64
2021/01/30 10:47:04;;;;;;;19.80;14.33;;;4.40;99.90;;;;;;5123002;28;20190;-65
2021/01/30 10:49:36;;;;;;;21.53;15.67;;;4.30;99.90;;;;;;5125400;28;20169;-65
2021/01/30 10:52:04;;;;;;;23.40;16.33;;;4.40;99.90;;;;;;5125061;28;20653;-65
2021/01/30 10:54:31;;;;;;;25.83;16.27;;;4.60;99.90;;;;;;5124290;28;20574;-65
2021/01/30 10:57:01;;;;;;;27.17;18.10;;;4.90;99.90;;;;;;5122387;28;20697;-65
2021/01/30 10:59:27;;;;;;;23.00;17.17;;;4.90;99.90;;;;;;5124526;28;20179;-65
2021/01/30 11:01:53;;;;;;;24.17;16.53;;;5.00;99.90;;;;;;5125106;28;20159;-65
2021/01/30 11:04:27;;;;;;;26.90;17.80;;;5.00;99.90;;;;;;5125209;28;20818;-63
2021/01/30 11:07:02;;;;;;;27.13;17.67;;;4.90;99.90;;;;;;5122678;28;20189;-63
2021/01/30 11:09:31;;;;;;;25.70;17.17;;;4.90;99.90;;;;;;5110961;28;20216;-63
2021/01/30 11:12:24;;;;;;;26.87;18.13;;;4.80;99.90;;;;;;5110672;28;20167;-63
2021/01/30 11:14:50;;;;;;;29.90;25.50;;;4.80;99.90;;;;;;5114941;28;20415;-65
2021/01/30 11:17:26;;;;;;;30.30;21.77;;;4.90;99.90;;;;;;5127828;28;20166;-65
2021/01/30 11:19:52;;;;;;;27.97;21.57;;;5.00;99.90;;;;;;5128771;28;20162;-65
2021/01/30 11:22:23;;;;;;;29.03;20.60;;;5.00;99.90;;;;;;5129159;28;20315;-65
2021/01/30 11:25:05;;;;;;;29.13;19.33;;;5.10;99.90;;;;;;5127204;28;20174;-65
2021/01/30 11:27:33;;;;;;;30.37;19.93;;;5.20;99.90;;;;;;5128187;28;20162;-65
2021/01/30 11:30:16;;;;;;;28.13;18.50;;;5.10;99.90;;;;;;5127980;28;20167;-65
2021/01/30 11:33:10;;;;;;;29.50;19.17;;;5.10;99.90;;;;;;5128865;28;20165;-63
2021/01/30 11:35:38;;;;;;;26.80;18.47;;;5.30;99.90;;;;;;5126485;28;20627;-65
2021/01/30 11:38:22;;;;;;;25.87;17.47;;;5.30;99.90;;;;;;5110127;28;20163;-65
2021/01/30 11:40:51;;;;;;;26.90;18.10;;;5.10;99.90;;;;;;5128637;28;20634;-64
2021/01/30 11:43:17;;;;;;;28.93;18.83;;;5.10;99.90;;;;;;5128517;28;20534;-65
2021/01/30 11:45:43;;;;;;;30.23;19.43;;;5.10;99.90;;;;;;5125075;28;20178;-65
2021/01/30 11:48:09;;;;;;;28.70;18.63;;;5.30;99.90;;;;;;5128172;28;20165;-63
2021/01/30 11:50:34;;;;;;;30.47;19.30;;;5.20;99.90;;;;;;5128741;28;20159;-63
2021/01/30 11:53:15;;;;;;;29.53;19.47;;;4.90;99.90;;;;;;5128270;28;20222;-64
2021/01/30 11:55:41;;;;;;;29.43;19.40;;;4.70;99.90;;;;;;5125821;28;20162;-64
2021/01/30 11:58:07;;;;;;;27.13;18.30;;;4.70;99.90;;;;;;5128089;28;20639;-64
2021/01/30 12:00:33;;;;;;;27.73;18.33;;;4.90;99.90;;;;;;5127943;28;20166;-64
2021/01/30 12:02:59;;;;;;;29.40;18.93;;;4.70;99.90;;;;;;5128039;28;20224;-64
2021/01/30 12:05:25;;;;;;;24.87;16.77;;;4.80;99.90;;;;;;5125483;28;20227;-65
2021/01/30 12:07:51;;;;;;;27.33;18.97;;;4.70;99.90;;;;;;5127961;28;20166;-64
2021/01/30 12:10:18;;;;;;;29.23;19.30;;;4.80;99.90;;;;;;5128568;28;20190;-64
2021/01/30 12:12:45;;;;;;;27.73;18.60;;;4.90;99.90;;;;;;5127120;28;20163;-64
2021/01/30 12:15:11;;;;;;;27.10;18.70;;;5.10;99.90;;;;;;5124960;28;20174;-65
2021/01/30 12:17:38;;;;;;;28.47;19.40;;;5.30;99.90;;;;;;5128212;28;20158;-64
2021/01/30 12:20:09;;;;;;;25.70;17.43;;;5.30;99.90;;;;;;5127957;28;20158;-64
2021/01/30 12:22:35;;;;;;;26.23;17.60;;;5.40;99.90;;;;;;5127944;28;20264;-65
2021/01/30 12:25:06;;;;;;;26.30;17.67;;;5.50;99.90;;;;;;5125222;28;20561;-64
2021/01/30 12:27:32;;;;;;;27.43;18.53;;;5.30;99.90;;;;;;5127630;28;20619;-65
2021/01/30 12:29:58;;;;;;;27.33;19.07;;;5.40;99.90;;;;;;5127012;28;20664;-64
2021/01/30 12:32:24;;;;;;;27.70;19.70;;;5.30;99.90;;;;;;5127699;28;20175;-65
2021/01/30 12:34:49;;;;;;;27.33;18.70;;;5.60;99.90;;;;;;5126712;28;20159;-64
2021/01/30 12:37:15;;;;;;;30.13;20.00;;;5.50;99.90;;;;;;5126602;28;20626;-64
2021/01/30 12:39:41;;;;;;;30.23;20.17;;;5.50;99.90;;;;;;5127673;28;20165;-64
2021/01/30 12:42:07;;;;;;;28.93;18.83;;;5.40;99.90;;;;;;5127307;28;20155;-64
2021/01/30 12:44:32;;;;;;;30.73;24.23;;;5.30;99.90;;;;;;5127009;28;20403;-65
2021/01/30 12:46:58;;;;;;;29.50;21.93;;;5.50;99.90;;;;;;5124397;28;20198;-65
2021/01/30 12:49:24;;;;;;;28.43;21.57;;;5.60;99.90;;;;;;5126775;28;20173;-65
2021/01/30 12:51:50;;;;;;;28.27;20.70;;;5.40;99.90;;;;;;5126875;28;20182;-64
2021/01/30 12:54:17;;;;;;;30.77;20.27;;;5.50;99.90;;;;;;5126954;28;20167;-64
2021/01/30 12:56:44;;;;;;;27.00;19.53;;;5.40;99.90;;;;;;5124176;28;20162;-64
2021/01/30 12:59:10;;;;;;;27.33;19.27;;;5.40;99.90;;;;;;5126653;28;20158;-64
2021/01/30 13:01:35;;;;;;;26.13;19.43;;;5.50;99.90;;;;;;5125756;28;20672;-65
2021/01/30 13:04:01;;;;;;;26.20;19.53;;;5.60;99.90;;;;;;5125260;28;20166;-65
2021/01/30 13:06:27;;;;;;;24.53;19.40;;;5.50;99.90;;;;;;5123981;28;20190;-63
2021/01/30 13:08:53;;;;;;;27.73;20.00;;;5.60;99.90;;;;;;5126919;28;20171;-64
2021/01/30 13:11:18;;;;;;;25.23;19.17;;;5.70;99.90;;;;;;5107381;28;20170;-64
2021/01/30 13:13:45;;;;;;;27.90;20.53;;;5.50;99.90;;;;;;5125803;28;20524;-64